sensor_id;sensor_type;location;lat;lon;timestamp;temperature;humidity
5415;DHT22;2730;51.512;7.504;2023-03-01T00:00:02;-1.70;99.90
5415;DHT22;2730;51.512;7.504;2023-03-01T00:02:29;-1.70;99.90
5415;DHT22;2730;51.512;7.504;2023-03-01T00:04:56;-1.70;99.90
5415;DHT22;2730;51.512;7.504;2023-03-01T00:07:24;-1.70;99.90
5415;DHT22;2730;51.512;7.504;2023-03-01T00:09:51;-1.70;99.90
5415;DHT22;2730;51.512;7.504;2023-03-01T00:12:18;-1.70;99.90
5415;DHT22;2730;51.512;7.504;2023-03-01T00:14:44;-1.70;99.90
5415;DHT22;2730;51.512;7.504;2023-03-01T00:17:11;-1.70;99.90
5415;DHT22;2730;51.512;7.504;2023-03-01T00:19:38;-1.80;99.90
5415;DHT22;2730;51.512;7.504;2023-03-01T00:22:05;-1.80;99.90
5415;DHT22;2730;51.512;7.504;2023-03-01T00:24:33;-1.80;99.90
5415;DHT22;2730;51.512;7.504;2023-03-01T00:27:00;-1.80;99.90
5415;DHT22;2730;51.512;7.504;2023-03-01T00:29:27;-1.80;99.90
5415;DHT22;2730;51.512;7.504;2023-03-01T00:31:54;-1.90;99.90
5415;DHT22;2730;51.512;7.504;2023-03-01T00:34:20;-1.90;99.90
5415;DHT22;2730;51.512;7.504;2023-03-01T00:36:47;-1.90;99.90
5415;DHT22;2730;51.512;7.504;2023-03-01T00:39:15;-1.90;99.90
5415;DHT22;2730;51.512;7.504;2023-03-01T00:41:43;-2.00;99.90
5415;DHT22;2730;51.512;7.504;2023-03-01T00:44:10;-2.00;99.90
5415;DHT22;2730;51.512;7.504;2023-03-01T00:46:37;-2.10;99.90
5415;DHT22;2730;51.512;7.504;2023-03-01T00:49:04;-2.10;99.90
5415;DHT22;2730;51.512;7.504;2023-03-01T00:51:31;-2.10;99.90
5415;DHT22;2730;51.512;7.504;2023-03-01T00:53:59;-2.10;99.90
5415;DHT22;2730;51.512;7.504;2023-03-01T00:56:27;-2.10;99.90
5415;DHT22;2730;51.512;7.504;2023-03-01T00:58:55;-2.10;99.90
5415;DHT22;2730;51.512;7.504;2023-03-01T01:01:24;-2.10;99.90
5415;DHT22;2730;51.512;7.504;2023-03-01T01:03:54;-2.00;99.90
5415;DHT22;2730;51.512;7.504;2023-03-01T01:06:23;-2.00;99.90
5415;DHT22;2730;51.512;7.504;2023-03-01T01:08:51;-1.90;99.90
5415;DHT22;2730;51.512;7.504;2023-03-01T01:11:18;-2.00;99.90
5415;DHT22;2730;51.512;7.504;2023-03-01T01:13:46;-1.80;99.90
5415;DHT22;2730;51.512;7.504;2023-03-01T01:16:16;-1.80;99.90
5415;DHT22;2730;51.512;7.504;2023-03-01T01:18:43;-2.00;99.90
5415;DHT22;2730;51.512;7.504;2023-03-01T01:21:12;-1.90;99.90
5415;DHT22;2730;51.512;7.504;2023-03-01T01:23:40;-1.90;99.90
5415;DHT22;2730;51.512;7.504;2023-03-01T01:26:08;-1.90;99.90
5415;DHT22;2730;51.512;7.504;2023-03-01T01:28:35;-1.90;99.90
5415;DHT22;2730;51.512;7.504;2023-03-01T01:31:02;-2.00;99.90
5415;DHT22;2730;51.512;7.504;2023-03-01T01:33:31;-1.90;99.90
5415;DHT22;2730;51.512;7.504;2023-03-01T01:35:58;-2.00;99.90
5415;DHT22;2730;51.512;7.504;2023-03-01T01:38:25;-2.10;99.90
5415;DHT22;2730;51.512;7.504;2023-03-01T01:40:51;-2.20;99.90
5415;DHT22;2730;51.512;7.504;2023-03-01T01:43:21;-2.20;99.90
5415;DHT22;2730;51.512;7.504;2023-03-01T01:45:48;-2.20;99.90
5415;DHT22;2730;51.512;7.504;2023-03-01T01:48:18;-2.30;99.90
5415;DHT22;2730;51.512;7.504;2023-03-01T01:50:52;-2.30;99.90
5415;DHT22;2730;51.512;7.504;2023-03-01T01:53:21;-2.30;99.90
5415;DHT22;2730;51.512;7.504;2023-03-01T01:55:52;-2.40;99.90
5415;DHT22;2730;51.512;7.504;2023-03-01T01:58:21;-2.40;99.90
5415;DHT22;2730;51.512;7.504;2023-03-01T02:00:48;-2.40;99.90
5415;DHT22;2730;51.512;7.504;2023-03-01T02:03:19;-2.40;99.90
5415;DHT22;2730;51.512;7.504;2023-03-01T02:05:53;-2.50;99.90
5415;DHT22;2730;51.512;7.504;2023-03-01T02:08:25;-2.50;99.90
5415;DHT22;2730;51.512;7.504;2023-03-01T02:10:53;-2.50;99.90
5415;DHT22;2730;51.512;7.504;2023-03-01T02:13:21;-2.40;99.90
5415;DHT22;2730;51.512;7.504;2023-03-01T02:15:48;-2.30;99.90
5415;DHT22;2730;51.512;7.504;2023-03-01T02:18:17;-2.30;99.90
5415;DHT22;2730;51.512;7.504;2023-03-01T02:20:56;-2.30;99.90
5415;DHT22;2730;51.512;7.504;2023-03-01T02:23:25;-2.40;99.90
5415;DHT22;2730;51.512;7.504;2023-03-01T02:25:57;-2.50;99.90
5415;DHT22;2730;51.512;7.504;2023-03-01T02:28:29;-2.50;99.90
5415;DHT22;2730;51.512;7.504;2023-03-01T02:30:56;-2.60;99.90
5415;DHT22;2730;51.512;7.504;2023-03-01T02:33:41;-2.60;99.90
5415;DHT22;2730;51.512;7.504;2023-03-01T02:36:11;-2.60;99.90
5415;DHT22;2730;51.512;7.504;2023-03-01T02:38:39;-2.60;99.90
5415;DHT22;2730;51.512;7.504;2023-03-01T02:41:07;-2.60;99.90
5415;DHT22;2730;51.512;7.504;2023-03-01T02:43:36;-2.60;99.90
5415;DHT22;2730;51.512;7.504;2023-03-01T02:46:07;-2.60;99.90
5415;DHT22;2730;51.512;7.504;2023-03-01T02:48:42;-2.60;99.90
5415;DHT22;2730;51.512;7.504;2023-03-01T02:51:31;-2.60;99.90
5415;DHT22;2730;51.512;7.504;2023-03-01T02:54:10;-2.70;99.90
5415;DHT22;2730;51.512;7.504;2023-03-01T02:56:39;-2.50;99.90
5415;DHT22;2730;51.512;7.504;2023-03-01T02:59:07;-2.30;99.90
5415;DHT22;2730;51.512;7.504;2023-03-01T03:01:35;-2.30;99.90
5415;DHT22;2730;51.512;7.504;2023-03-01T03:04:04;-2.40;99.90
5415;DHT22;2730;51.512;7.504;2023-03-01T03:06:31;-2.50;99.90
5415;DHT22;2730;51.512;7.504;2023-03-01T03:08:58;-2.50;99.90
5415;DHT22;2730;51.512;7.504;2023-03-01T03:11:25;-2.50;99.90
5415;DHT22;2730;51.512;7.504;2023-03-01T03:13:52;-2.40;99.90
5415;DHT22;2730;51.512;7.504;2023-03-01T03:16:20;-2.40;99.90
5415;DHT22;2730;51.512;7.504;2023-03-01T03:18:48;-2.50;99.90
5415;DHT22;2730;51.512;7.504;2023-03-01T03:21:15;-2.40;99.90
5415;DHT22;2730;51.512;7.504;2023-03-01T03:23:42;-2.50;99.90
5415;DHT22;2730;51.512;7.504;2023-03-01T03:26:09;-2.60;99.90
5415;DHT22;2730;51.512;7.504;2023-03-01T03:28:39;-2.70;99.90
5415;DHT22;2730;51.512;7.504;2023-03-01T03:31:06;-2.70;99.90
5415;DHT22;2730;51.512;7.504;2023-03-01T03:33:35;-2.60;99.90
5415;DHT22;2730;51.512;7.504;2023-03-01T03:36:02;-2.60;99.90
5415;DHT22;2730;51.512;7.504;2023-03-01T03:38:29;-2.70;99.90
5415;DHT22;2730;51.512;7.504;2023-03-01T03:41:01;-2.80;99.90
5415;DHT22;2730;51.512;7.504;2023-03-01T03:43:29;-2.70;99.90
5415;DHT22;2730;51.512;7.504;2023-03-01T03:45:56;-2.80;99.90
5415;DHT22;2730;51.512;7.504;2023-03-01T03:48:24;-2.90;99.90
5415;DHT22;2730;51.512;7.504;2023-03-01T03:50:54;-2.90;99.90
5415;DHT22;2730;51.512;7.504;2023-03-01T03:53:22;-2.90;99.90
5415;DHT22;2730;51.512;7.504;2023-03-01T03:55:49;-3.00;99.90
5415;DHT22;2730;51.512;7.504;2023-03-01T03:58:18;-3.00;99.90
5415;DHT22;2730;51.512;7.504;2023-03-01T04:00:46;-3.00;99.90
5415;DHT22;2730;51.512;7.504;2023-03-01T04:03:14;-3.10;99.90
5415;DHT22;2730;51.512;7.504;2023-03-01T04:05:42;-3.10;99.90
5415;DHT22;2730;51.512;7.504;2023-03-01T04:08:10;-3.20;99.90
5415;DHT22;2730;51.512;7.504;2023-03-01T04:10:39;-3.20;99.90
5415;DHT22;2730;51.512;7.504;2023-03-01T04:13:07;-3.20;99.90
5415;DHT22;2730;51.512;7.504;2023-03-01T04:15:35;-3.10;99.90
5415;DHT22;2730;51.512;7.504;2023-03-01T04:18:02;-3.20;99.90
5415;DHT22;2730;51.512;7.504;2023-03-01T04:20:33;-3.20;99.90
5415;DHT22;2730;51.512;7.504;2023-03-01T04:23:01;-3.10;99.90
5415;DHT22;2730;51.512;7.504;2023-03-01T04:25:38;-3.20;99.90
5415;DHT22;2730;51.512;7.504;2023-03-01T04:28:05;-3.20;99.90
5415;DHT22;2730;51.512;7.504;2023-03-01T04:30:32;-3.30;99.90
5415;DHT22;2730;51.512;7.504;2023-03-01T04:33:02;-3.30;99.90
5415;DHT22;2730;51.512;7.504;2023-03-01T04:35:29;-3.40;99.90
5415;DHT22;2730;51.512;7.504;2023-03-01T04:37:56;-3.40;99.90
5415;DHT22;2730;51.512;7.504;2023-03-01T04:40:22;-3.40;99.90
5415;DHT22;2730;51.512;7.504;2023-03-01T04:42:51;-3.40;99.90
5415;DHT22;2730;51.512;7.504;2023-03-01T04:45:17;-3.40;99.90
5415;DHT22;2730;51.512;7.504;2023-03-01T04:47:45;-3.40;99.90
5415;DHT22;2730;51.512;7.504;2023-03-01T04:50:14;-3.50;99.90
5415;DHT22;2730;51.512;7.504;2023-03-01T04:52:42;-3.50;99.90
5415;DHT22;2730;51.512;7.504;2023-03-01T04:55:09;-3.50;99.90
5415;DHT22;2730;51.512;7.504;2023-03-01T04:57:36;-3.50;99.90
5415;DHT22;2730;51.512;7.504;2023-03-01T05:00:08;-3.60;99.90
5415;DHT22;2730;51.512;7.504;2023-03-01T05:02:46;-3.60;99.90
5415;DHT22;2730;51.512;7.504;2023-03-01T05:05:14;-3.60;99.90
5415;DHT22;2730;51.512;7.504;2023-03-01T05:07:41;-3.60;99.90
5415;DHT22;2730;51.512;7.504;2023-03-01T05:10:09;-3.60;99.90
5415;DHT22;2730;51.512;7.504;2023-03-01T05:12:36;-3.60;99.90
5415;DHT22;2730;51.512;7.504;2023-03-01T05:15:06;-3.60;99.90
5415;DHT22;2730;51.512;7.504;2023-03-01T05:17:33;-3.60;99.90
5415;DHT22;2730;51.512;7.504;2023-03-01T05:20:00;-3.60;99.90
5415;DHT22;2730;51.512;7.504;2023-03-01T05:22:31;-3.70;99.90
5415;DHT22;2730;51.512;7.504;2023-03-01T05:24:57;-3.60;99.90
5415;DHT22;2730;51.512;7.504;2023-03-01T05:27:24;-3.60;99.90
5415;DHT22;2730;51.512;7.504;2023-03-01T05:29:51;-3.60;99.90
5415;DHT22;2730;51.512;7.504;2023-03-01T05:32:19;-3.60;99.90
5415;DHT22;2730;51.512;7.504;2023-03-01T05:34:46;-3.70;99.90
5415;DHT22;2730;51.512;7.504;2023-03-01T05:37:13;-3.70;99.90
5415;DHT22;2730;51.512;7.504;2023-03-01T05:39:40;-3.60;99.90
5415;DHT22;2730;51.512;7.504;2023-03-01T05:42:10;-3.60;99.90
5415;DHT22;2730;51.512;7.504;2023-03-01T05:44:37;-3.70;99.90
5415;DHT22;2730;51.512;7.504;2023-03-01T05:47:04;-3.60;99.90
5415;DHT22;2730;51.512;7.504;2023-03-01T05:49:33;-3.60;99.90
5415;DHT22;2730;51.512;7.504;2023-03-01T05:52:00;-3.60;99.90
5415;DHT22;2730;51.512;7.504;2023-03-01T05:54:26;-3.60;99.90
5415;DHT22;2730;51.512;7.504;2023-03-01T05:56:53;-3.60;99.90
5415;DHT22;2730;51.512;7.504;2023-03-01T05:59:20;-3.60;99.90
5415;DHT22;2730;51.512;7.504;2023-03-01T06:01:47;-3.60;99.90
5415;DHT22;2730;51.512;7.504;2023-03-01T06:04:13;-3.60;99.90
5415;DHT22;2730;51.512;7.504;2023-03-01T06:06:41;-3.50;99.90
5415;DHT22;2730;51.512;7.504;2023-03-01T06:09:08;-3.60;99.90
5415;DHT22;2730;51.512;7.504;2023-03-01T06:11:35;-3.60;99.90
5415;DHT22;2730;51.512;7.504;2023-03-01T06:14:03;-3.60;99.90
5415;DHT22;2730;51.512;7.504;2023-03-01T06:16:30;-3.60;99.90
5415;DHT22;2730;51.512;7.504;2023-03-01T06:18:56;-3.70;99.90
5415;DHT22;2730;51.512;7.504;2023-03-01T06:21:23;-3.60;99.90
5415;DHT22;2730;51.512;7.504;2023-03-01T06:23:51;-3.70;99.90
5415;DHT22;2730;51.512;7.504;2023-03-01T06:26:18;-3.70;99.90
5415;DHT22;2730;51.512;7.504;2023-03-01T06:28:45;-3.60;99.90
5415;DHT22;2730;51.512;7.504;2023-03-01T06:31:12;-3.70;99.90
5415;DHT22;2730;51.512;7.504;2023-03-01T06:33:38;-3.60;99.90
5415;DHT22;2730;51.512;7.504;2023-03-01T06:36:06;-3.60;99.90
5415;DHT22;2730;51.512;7.504;2023-03-01T06:38:33;-3.60;99.90
5415;DHT22;2730;51.512;7.504;2023-03-01T06:41:01;-3.50;99.90
5415;DHT22;2730;51.512;7.504;2023-03-01T06:43:28;-3.50;99.90
5415;DHT22;2730;51.512;7.504;2023-03-01T06:45:55;-3.50;99.90
5415;DHT22;2730;51.512;7.504;2023-03-01T06:48:22;-3.50;99.90
5415;DHT22;2730;51.512;7.504;2023-03-01T06:50:49;-3.50;99.90
5415;DHT22;2730;51.512;7.504;2023-03-01T06:53:15;-3.40;99.90
5415;DHT22;2730;51.512;7.504;2023-03-01T06:55:42;-3.40;99.90
5415;DHT22;2730;51.512;7.504;2023-03-01T06:58:10;-3.30;99.90
5415;DHT22;2730;51.512;7.504;2023-03-01T07:00:37;-3.30;99.90
5415;DHT22;2730;51.512;7.504;2023-03-01T07:03:06;-3.30;99.90
5415;DHT22;2730;51.512;7.504;2023-03-01T07:05:33;-3.20;99.90
5415;DHT22;2730;51.512;7.504;2023-03-01T07:08:00;-3.10;99.90
5415;DHT22;2730;51.512;7.504;2023-03-01T07:10:27;-3.10;99.90
5415;DHT22;2730;51.512;7.504;2023-03-01T07:12:57;-2.90;99.90
5415;DHT22;2730;51.512;7.504;2023-03-01T07:15:26;-2.70;99.90
5415;DHT22;2730;51.512;7.504;2023-03-01T07:17:53;-2.60;99.90
5415;DHT22;2730;51.512;7.504;2023-03-01T07:20:20;-2.70;99.90
5415;DHT22;2730;51.512;7.504;2023-03-01T07:22:50;-2.70;99.90
5415;DHT22;2730;51.512;7.504;2023-03-01T07:25:17;-2.70;99.90
5415;DHT22;2730;51.512;7.504;2023-03-01T07:27:43;-2.50;99.90
5415;DHT22;2730;51.512;7.504;2023-03-01T07:30:11;-2.50;99.90
5415;DHT22;2730;51.512;7.504;2023-03-01T07:32:39;-2.40;99.90
5415;DHT22;2730;51.512;7.504;2023-03-01T07:35:06;-2.30;99.90
5415;DHT22;2730;51.512;7.504;2023-03-01T07:37:33;-2.30;99.90
5415;DHT22;2730;51.512;7.504;2023-03-01T07:40:00;-2.30;99.90
5415;DHT22;2730;51.512;7.504;2023-03-01T07:42:27;-2.30;99.90
5415;DHT22;2730;51.512;7.504;2023-03-01T07:44:54;-2.20;99.90
5415;DHT22;2730;51.512;7.504;2023-03-01T07:47:20;-2.20;99.90
5415;DHT22;2730;51.512;7.504;2023-03-01T07:49:48;-2.10;99.90
5415;DHT22;2730;51.512;7.504;2023-03-01T07:52:15;-2.10;99.90
5415;DHT22;2730;51.512;7.504;2023-03-01T07:54:43;-2.00;99.90
5415;DHT22;2730;51.512;7.504;2023-03-01T07:57:10;-2.00;99.90
5415;DHT22;2730;51.512;7.504;2023-03-01T07:59:37;-2.00;99.90
5415;DHT22;2730;51.512;7.504;2023-03-01T08:02:04;-1.80;99.90
5415;DHT22;2730;51.512;7.504;2023-03-01T08:04:31;-1.80;99.90
5415;DHT22;2730;51.512;7.504;2023-03-01T08:07:00;-1.80;99.90
5415;DHT22;2730;51.512;7.504;2023-03-01T08:09:26;-1.70;99.90
5415;DHT22;2730;51.512;7.504;2023-03-01T08:11:53;-1.70;99.90
5415;DHT22;2730;51.512;7.504;2023-03-01T08:14:20;-1.60;99.90
5415;DHT22;2730;51.512;7.504;2023-03-01T08:16:49;-1.40;99.90
5415;DHT22;2730;51.512;7.504;2023-03-01T08:19:16;-1.40;99.90
5415;DHT22;2730;51.512;7.504;2023-03-01T08:21:43;-1.30;99.90
5415;DHT22;2730;51.512;7.504;2023-03-01T08:24:11;-1.10;99.90
5415;DHT22;2730;51.512;7.504;2023-03-01T08:26:38;-1.00;99.90
5415;DHT22;2730;51.512;7.504;2023-03-01T08:29:05;-0.90;99.90
5415;DHT22;2730;51.512;7.504;2023-03-01T08:31:34;-0.80;99.90
5415;DHT22;2730;51.512;7.504;2023-03-01T08:34:04;-0.80;99.90
5415;DHT22;2730;51.512;7.504;2023-03-01T08:36:32;-0.70;99.90
5415;DHT22;2730;51.512;7.504;2023-03-01T08:38:59;-0.60;99.90
5415;DHT22;2730;51.512;7.504;2023-03-01T08:41:28;-0.60;99.90
5415;DHT22;2730;51.512;7.504;2023-03-01T08:43:55;-0.50;99.90
5415;DHT22;2730;51.512;7.504;2023-03-01T08:46:25;-0.40;99.90
5415;DHT22;2730;51.512;7.504;2023-03-01T08:48:52;-0.30;99.90
5415;DHT22;2730;51.512;7.504;2023-03-01T08:51:20;-0.20;99.90
5415;DHT22;2730;51.512;7.504;2023-03-01T08:53:47;0.00;99.90
5415;DHT22;2730;51.512;7.504;2023-03-01T08:56:15;0.70;99.90
5415;DHT22;2730;51.512;7.504;2023-03-01T08:58:45;2.30;99.90
5415;DHT22;2730;51.512;7.504;2023-03-01T09:01:14;3.80;99.90
5415;DHT22;2730;51.512;7.504;2023-03-01T09:03:42;5.00;99.90
5415;DHT22;2730;51.512;7.504;2023-03-01T09:06:09;5.50;99.90
5415;DHT22;2730;51.512;7.504;2023-03-01T09:08:36;5.90;99.90
5415;DHT22;2730;51.512;7.504;2023-03-01T09:11:04;6.30;99.90
5415;DHT22;2730;51.512;7.504;2023-03-01T09:13:31;7.00;99.90
5415;DHT22;2730;51.512;7.504;2023-03-01T09:16:01;7.10;99.90
5415;DHT22;2730;51.512;7.504;2023-03-01T09:18:28;7.20;99.90
5415;DHT22;2730;51.512;7.504;2023-03-01T09:21:01;7.60;99.90
5415;DHT22;2730;51.512;7.504;2023-03-01T09:23:27;8.10;99.90
5415;DHT22;2730;51.512;7.504;2023-03-01T09:25:54;8.40;99.40
5415;DHT22;2730;51.512;7.504;2023-03-01T09:28:21;8.50;99.00
5415;DHT22;2730;51.512;7.504;2023-03-01T09:30:48;8.50;98.20
5415;DHT22;2730;51.512;7.504;2023-03-01T09:33:16;8.50;97.00
5415;DHT22;2730;51.512;7.504;2023-03-01T09:35:43;7.90;98.30
5415;DHT22;2730;51.512;7.504;2023-03-01T09:38:12;7.40;98.20
5415;DHT22;2730;51.512;7.504;2023-03-01T09:40:42;7.20;98.90
5415;DHT22;2730;51.512;7.504;2023-03-01T09:43:18;6.80;99.30
5415;DHT22;2730;51.512;7.504;2023-03-01T09:45:46;6.90;99.90
5415;DHT22;2730;51.512;7.504;2023-03-01T09:48:18;7.30;99.40
5415;DHT22;2730;51.512;7.504;2023-03-01T09:50:47;7.30;99.50
5415;DHT22;2730;51.512;7.504;2023-03-01T09:53:17;7.60;99.20
5415;DHT22;2730;51.512;7.504;2023-03-01T09:55:46;8.10;98.00
5415;DHT22;2730;51.512;7.504;2023-03-01T09:58:31;8.10;97.70
5415;DHT22;2730;51.512;7.504;2023-03-01T10:01:05;8.10;97.60
5415;DHT22;2730;51.512;7.504;2023-03-01T10:03:47;7.80;97.30
5415;DHT22;2730;51.512;7.504;2023-03-01T10:06:21;7.50;98.20
5415;DHT22;2730;51.512;7.504;2023-03-01T10:08:54;7.20;98.20
5415;DHT22;2730;51.512;7.504;2023-03-01T10:11:25;7.80;98.10
5415;DHT22;2730;51.512;7.504;2023-03-01T10:13:58;8.30;97.60
5415;DHT22;2730;51.512;7.504;2023-03-01T10:16:38;8.20;96.50
5415;DHT22;2730;51.512;7.504;2023-03-01T10:19:12;7.40;97.30
5415;DHT22;2730;51.512;7.504;2023-03-01T10:21:44;6.90;98.30
5415;DHT22;2730;51.512;7.504;2023-03-01T10:24:14;7.30;98.60
5415;DHT22;2730;51.512;7.504;2023-03-01T10:26:50;7.80;97.80
5415;DHT22;2730;51.512;7.504;2023-03-01T10:29:22;7.80;97.20
5415;DHT22;2730;51.512;7.504;2023-03-01T10:31:52;7.50;96.80
5415;DHT22;2730;51.512;7.504;2023-03-01T10:34:26;7.00;97.70
5415;DHT22;2730;51.512;7.504;2023-03-01T10:36:57;7.30;97.50
5415;DHT22;2730;51.512;7.504;2023-03-01T10:39:25;7.30;97.20
5415;DHT22;2730;51.512;7.504;2023-03-01T10:41:56;7.30;97.60
5415;DHT22;2730;51.512;7.504;2023-03-01T10:44:41;7.50;97.90
5415;DHT22;2730;51.512;7.504;2023-03-01T10:47:17;7.30;97.30
5415;DHT22;2730;51.512;7.504;2023-03-01T10:49:55;7.40;98.10
5415;DHT22;2730;51.512;7.504;2023-03-01T10:52:25;7.20;97.70
5415;DHT22;2730;51.512;7.504;2023-03-01T10:54:54;7.00;97.80
5415;DHT22;2730;51.512;7.504;2023-03-01T10:57:30;7.00;98.20
5415;DHT22;2730;51.512;7.504;2023-03-01T11:00:22;7.60;97.90
5415;DHT22;2730;51.512;7.504;2023-03-01T11:03:02;7.30;97.70
5415;DHT22;2730;51.512;7.504;2023-03-01T11:05:30;7.00;98.40
5415;DHT22;2730;51.512;7.504;2023-03-01T11:08:00;6.90;98.50
5415;DHT22;2730;51.512;7.504;2023-03-01T11:10:29;7.20;98.00
5415;DHT22;2730;51.512;7.504;2023-03-01T11:13:07;6.60;98.60
5415;DHT22;2730;51.512;7.504;2023-03-01T11:15:34;6.40;98.90
5415;DHT22;2730;51.512;7.504;2023-03-01T11:18:01;5.70;99.60
5415;DHT22;2730;51.512;7.504;2023-03-01T11:20:33;5.40;99.90
5415;DHT22;2730;51.512;7.504;2023-03-01T11:23:03;5.20;99.90
5415;DHT22;2730;51.512;7.504;2023-03-01T11:25:34;5.00;99.90
5415;DHT22;2730;51.512;7.504;2023-03-01T11:28:04;4.80;99.90
5415;DHT22;2730;51.512;7.504;2023-03-01T11:30:34;4.80;99.90
5415;DHT22;2730;51.512;7.504;2023-03-01T11:33:16;4.80;99.90
5415;DHT22;2730;51.512;7.504;2023-03-01T11:35:50;4.60;99.90
5415;DHT22;2730;51.512;7.504;2023-03-01T11:38:23;4.60;99.90
5415;DHT22;2730;51.512;7.504;2023-03-01T11:40:53;4.60;99.90
5415;DHT22;2730;51.512;7.504;2023-03-01T11:43:30;4.70;99.90
5415;DHT22;2730;51.512;7.504;2023-03-01T11:46:29;4.70;99.90
5415;DHT22;2730;51.512;7.504;2023-03-01T11:49:10;4.60;99.90
5415;DHT22;2730;51.512;7.504;2023-03-01T11:51:52;4.70;99.90
5415;DHT22;2730;51.512;7.504;2023-03-01T11:54:29;4.70;99.90
5415;DHT22;2730;51.512;7.504;2023-03-01T11:57:01;4.80;99.90
5415;DHT22;2730;51.512;7.504;2023-03-01T11:59:51;4.70;99.90
5415;DHT22;2730;51.512;7.504;2023-03-01T12:02:49;4.90;99.90
5415;DHT22;2730;51.512;7.504;2023-03-01T12:05:54;4.90;99.90
5415;DHT22;2730;51.512;7.504;2023-03-01T12:08:33;4.80;99.90
5415;DHT22;2730;51.512;7.504;2023-03-01T12:11:13;4.90;99.90
5415;DHT22;2730;51.512;7.504;2023-03-01T12:14:03;4.90;99.90
5415;DHT22;2730;51.512;7.504;2023-03-01T12:16:57;5.00;99.90
5415;DHT22;2730;51.512;7.504;2023-03-01T12:19:39;5.00;99.90
5415;DHT22;2730;51.512;7.504;2023-03-01T12:22:21;5.10;99.90
5415;DHT22;2730;51.512;7.504;2023-03-01T12:25:13;5.00;99.90
5415;DHT22;2730;51.512;7.504;2023-03-01T12:28:08;5.00;99.90
5415;DHT22;2730;51.512;7.504;2023-03-01T12:30:53;5.10;99.90
5415;DHT22;2730;51.512;7.504;2023-03-01T12:33:30;5.10;99.90
5415;DHT22;2730;51.512;7.504;2023-03-01T12:36:14;5.10;99.90
5415;DHT22;2730;51.512;7.504;2023-03-01T12:38:45;5.20;99.90
5415;DHT22;2730;51.512;7.504;2023-03-01T12:44:37;5.20;99.90
5415;DHT22;2730;51.512;7.504;2023-03-01T12:47:14;5.20;99.90
5415;DHT22;2730;51.512;7.504;2023-03-01T12:49:49;5.30;99.90
5415;DHT22;2730;51.512;7.504;2023-03-01T12:52:21;5.20;99.90
5415;DHT22;2730;51.512;7.504;2023-03-01T12:54:51;5.30;99.90
5415;DHT22;2730;51.512;7.504;2023-03-01T12:57:25;5.20;99.90
5415;DHT22;2730;51.512;7.504;2023-03-01T13:00:06;5.20;99.90
5415;DHT22;2730;51.512;7.504;2023-03-01T13:02:40;5.20;99.90
5415;DHT22;2730;51.512;7.504;2023-03-01T13:05:24;5.20;99.90
5415;DHT22;2730;51.512;7.504;2023-03-01T13:07:58;5.30;99.90
5415;DHT22;2730;51.512;7.504;2023-03-01T13:10:33;5.30;99.90
5415;DHT22;2730;51.512;7.504;2023-03-01T13:13:13;5.40;99.90
5415;DHT22;2730;51.512;7.504;2023-03-01T13:15:40;5.50;99.90
5415;DHT22;2730;51.512;7.504;2023-03-01T13:18:31;5.50;99.90
5415;DHT22;2730;51.512;7.504;2023-03-01T13:21:00;5.50;99.90
5415;DHT22;2730;51.512;7.504;2023-03-01T13:23:30;5.50;99.90
5415;DHT22;2730;51.512;7.504;2023-03-01T13:26:04;5.60;99.90
5415;DHT22;2730;51.512;7.504;2023-03-01T13:28:47;5.70;99.90
5415;DHT22;2730;51.512;7.504;2023-03-01T13:34:51;5.80;98.60
5415;DHT22;2730;51.512;7.504;2023-03-01T13:37:23;5.70;98.80
5415;DHT22;2730;51.512;7.504;2023-03-01T13:39:52;5.70;98.50
5415;DHT22;2730;51.512;7.504;2023-03-01T13:42:46;5.60;98.60
5415;DHT22;2730;51.512;7.504;2023-03-01T13:45:20;5.60;98.80
5415;DHT22;2730;51.512;7.504;2023-03-01T13:47:52;5.70;99.20
5415;DHT22;2730;51.512;7.504;2023-03-01T13:50:23;5.70;98.60
5415;DHT22;2730;51.512;7.504;2023-03-01T13:52:54;5.80;98.30
5415;DHT22;2730;51.512;7.504;2023-03-01T13:55:26;5.90;98.00
5415;DHT22;2730;51.512;7.504;2023-03-01T13:57:56;5.90;98.20
5415;DHT22;2730;51.512;7.504;2023-03-01T14:00:36;5.80;98.10
5415;DHT22;2730;51.512;7.504;2023-03-01T14:03:11;5.90;98.30
5415;DHT22;2730;51.512;7.504;2023-03-01T14:05:39;5.90;98.40
5415;DHT22;2730;51.512;7.504;2023-03-01T14:08:20;6.00;97.80
5415;DHT22;2730;51.512;7.504;2023-03-01T14:10:57;6.00;97.60
5415;DHT22;2730;51.512;7.504;2023-03-01T14:13:34;6.00;97.60
5415;DHT22;2730;51.512;7.504;2023-03-01T14:16:17;6.10;97.80
5415;DHT22;2730;51.512;7.504;2023-03-01T14:18:55;6.00;97.40
5415;DHT22;2730;51.512;7.504;2023-03-01T14:21:26;6.00;97.30
5415;DHT22;2730;51.512;7.504;2023-03-01T14:23:53;6.00;97.70
5415;DHT22;2730;51.512;7.504;2023-03-01T14:26:21;6.00;97.70
5415;DHT22;2730;51.512;7.504;2023-03-01T14:28:49;6.10;98.00
5415;DHT22;2730;51.512;7.504;2023-03-01T14:31:34;6.20;97.40
5415;DHT22;2730;51.512;7.504;2023-03-01T14:34:01;6.20;97.50
5415;DHT22;2730;51.512;7.504;2023-03-01T14:36:29;6.20;97.70
5415;DHT22;2730;51.512;7.504;2023-03-01T14:38:57;6.10;98.00
5415;DHT22;2730;51.512;7.504;2023-03-01T14:41:32;6.20;97.40
5415;DHT22;2730;51.512;7.504;2023-03-01T14:44:01;6.20;97.30
5415;DHT22;2730;51.512;7.504;2023-03-01T14:46:33;6.10;97.70
5415;DHT22;2730;51.512;7.504;2023-03-01T14:49:03;6.20;97.10
5415;DHT22;2730;51.512;7.504;2023-03-01T14:51:34;6.10;96.80
5415;DHT22;2730;51.512;7.504;2023-03-01T14:54:01;6.10;97.50
5415;DHT22;2730;51.512;7.504;2023-03-01T14:56:43;6.20;97.20
5415;DHT22;2730;51.512;7.504;2023-03-01T14:59:11;6.20;97.00
5415;DHT22;2730;51.512;7.504;2023-03-01T15:01:40;6.10;97.10
5415;DHT22;2730;51.512;7.504;2023-03-01T15:04:11;6.10;96.90
5415;DHT22;2730;51.512;7.504;2023-03-01T15:06:39;6.20;96.70
5415;DHT22;2730;51.512;7.504;2023-03-01T15:09:07;6.20;96.80
5415;DHT22;2730;51.512;7.504;2023-03-01T15:11:38;6.10;96.90
5415;DHT22;2730;51.512;7.504;2023-03-01T15:14:27;6.20;97.10
5415;DHT22;2730;51.512;7.504;2023-03-01T15:16:56;6.20;96.90
5415;DHT22;2730;51.512;7.504;2023-03-01T15:19:27;6.10;96.60
5415;DHT22;2730;51.512;7.504;2023-03-01T15:21:55;6.10;96.50
5415;DHT22;2730;51.512;7.504;2023-03-01T15:24:24;6.10;97.00
5415;DHT22;2730;51.512;7.504;2023-03-01T15:26:55;6.10;97.40
5415;DHT22;2730;51.512;7.504;2023-03-01T15:29:24;6.00;97.20
5415;DHT22;2730;51.512;7.504;2023-03-01T15:31:58;5.90;97.40
5415;DHT22;2730;51.512;7.504;2023-03-01T15:34:27;6.00;97.50
5415;DHT22;2730;51.512;7.504;2023-03-01T15:36:56;6.00;97.80
5415;DHT22;2730;51.512;7.504;2023-03-01T15:39:36;6.10;97.70
5415;DHT22;2730;51.512;7.504;2023-03-01T15:42:05;6.00;97.60
5415;DHT22;2730;51.512;7.504;2023-03-01T15:44:33;5.90;97.70
5415;DHT22;2730;51.512;7.504;2023-03-01T15:47:02;5.90;98.10
5415;DHT22;2730;51.512;7.504;2023-03-01T15:49:37;5.90;98.00
5415;DHT22;2730;51.512;7.504;2023-03-01T15:52:09;5.80;97.90
5415;DHT22;2730;51.512;7.504;2023-03-01T15:54:39;5.80;97.70
5415;DHT22;2730;51.512;7.504;2023-03-01T15:57:10;5.90;97.80
5415;DHT22;2730;51.512;7.504;2023-03-01T15:59:38;5.90;97.50
5415;DHT22;2730;51.512;7.504;2023-03-01T16:02:10;5.90;97.60
5415;DHT22;2730;51.512;7.504;2023-03-01T16:04:38;5.80;97.90
5415;DHT22;2730;51.512;7.504;2023-03-01T16:07:05;5.80;98.00
5415;DHT22;2730;51.512;7.504;2023-03-01T16:09:33;5.80;97.80
5415;DHT22;2730;51.512;7.504;2023-03-01T16:11:59;5.80;98.10
5415;DHT22;2730;51.512;7.504;2023-03-01T16:14:27;5.80;98.10
5415;DHT22;2730;51.512;7.504;2023-03-01T16:16:54;5.70;98.10
5415;DHT22;2730;51.512;7.504;2023-03-01T16:19:22;5.70;98.10
5415;DHT22;2730;51.512;7.504;2023-03-01T16:21:48;5.70;98.30
5415;DHT22;2730;51.512;7.504;2023-03-01T16:24:15;5.60;98.30
5415;DHT22;2730;51.512;7.504;2023-03-01T16:26:42;5.60;98.40
5415;DHT22;2730;51.512;7.504;2023-03-01T16:29:09;5.60;98.50
5415;DHT22;2730;51.512;7.504;2023-03-01T16:31:36;5.50;98.60
5415;DHT22;2730;51.512;7.504;2023-03-01T16:34:03;5.50;98.70
5415;DHT22;2730;51.512;7.504;2023-03-01T16:36:31;5.40;98.80